createdAt,value
2023-05-22T00:00:52.897Z,99.60
2023-05-22T00:03:30.619Z,99.90
2023-05-22T00:06:03.571Z,99.90
2023-05-22T00:08:37.119Z,99.90
2023-05-22T00:11:09.734Z,99.90
2023-05-22T00:13:42.582Z,99.90
2023-05-22T00:16:15.128Z,99.90
2023-05-22T00:18:48.350Z,99.90
2023-05-22T00:21:21.096Z,99.90
2023-05-22T00:23:54.294Z,99.90
2023-05-22T00:26:26.973Z,99.90
2023-05-22T00:29:00.048Z,99.90
2023-05-22T00:31:32.719Z,99.90
2023-05-22T00:34:05.922Z,99.90
2023-05-22T00:36:38.490Z,99.90
2023-05-22T00:39:11.717Z,99.90
2023-05-22T00:41:44.328Z,99.90
2023-05-22T00:44:17.322Z,99.90
2023-05-22T00:46:50.862Z,99.90
2023-05-22T00:49:24.076Z,99.90
2023-05-22T00:51:56.821Z,99.90
2023-05-22T00:54:31.993Z,99.90
2023-05-22T00:57:05.588Z,99.90
2023-05-22T00:59:38.530Z,99.90
2023-05-22T01:02:11.210Z,99.90
2023-05-22T01:04:50.387Z,99.90
2023-05-22T01:07:23.974Z,99.90
2023-05-22T01:09:57.664Z,99.90
2023-05-22T01:12:55.867Z,99.90
2023-05-22T01:15:50.570Z,99.90
2023-05-22T01:18:46.698Z,99.90
2023-05-22T01:21:46.409Z,99.90
2023-05-22T01:24:30.756Z,99.90
2023-05-22T01:27:28.748Z,99.90
2023-05-22T01:30:26.044Z,99.90
2023-05-22T01:33:00.888Z,99.90
2023-05-22T01:35:35.199Z,99.90
2023-05-22T01:38:11.093Z,99.90
2023-05-22T01:40:46.011Z,99.90
2023-05-22T01:43:19.429Z,99.90
2023-05-22T01:45:52.110Z,99.90
2023-05-22T01:48:24.998Z,99.90
2023-05-22T01:51:03.915Z,99.90
2023-05-22T01:54:07.588Z,99.90
2023-05-22T01:56:49.095Z,99.90
2023-05-22T01:59:25.546Z,99.90
2023-05-22T02:02:04.878Z,99.90
2023-05-22T02:04:41.321Z,99.90
2023-05-22T02:07:15.555Z,99.90
2023-05-22T02:09:50.806Z,99.90
2023-05-22T02:12:24.434Z,99.90
2023-05-22T02:14:57.654Z,99.90
2023-05-22T02:17:30.393Z,99.90
2023-05-22T02:20:03.663Z,99.90
2023-05-22T02:22:36.256Z,99.90
2023-05-22T02:25:14.205Z,99.90
2023-05-22T02:27:48.058Z,99.90
2023-05-22T02:30:21.381Z,99.90
2023-05-22T02:32:54.598Z,99.90
2023-05-22T02:35:27.613Z,99.90
2023-05-22T02:38:00.241Z,99.90
2023-05-22T02:40:33.239Z,99.90
2023-05-22T02:43:06.063Z,99.90
2023-05-22T02:45:39.185Z,99.90
2023-05-22T02:48:11.994Z,99.90
2023-05-22T02:50:44.998Z,99.90
2023-05-22T02:53:17.630Z,99.90
2023-05-22T02:55:52.878Z,99.90
2023-05-22T02:58:25.812Z,99.90
2023-05-22T03:00:58.844Z,99.90
2023-05-22T03:03:31.664Z,99.90
2023-05-22T03:06:04.865Z,99.90
2023-05-22T03:08:41.725Z,99.90
2023-05-22T03:11:14.722Z,99.90
2023-05-22T03:13:47.368Z,99.90
2023-05-22T03:16:20.418Z,99.90
2023-05-22T03:19:08.539Z,99.90
2023-05-22T03:21:41.893Z,99.90
2023-05-22T03:24:14.470Z,99.90
2023-05-22T03:26:47.466Z,99.90
2023-05-22T03:29:20.195Z,99.90
2023-05-22T03:31:54.886Z,99.90
2023-05-22T03:34:27.538Z,99.90
2023-05-22T03:37:00.603Z,99.90
2023-05-22T03:39:33.203Z,99.90
2023-05-22T03:42:06.793Z,99.90
2023-05-22T03:44:39.880Z,99.90
2023-05-22T03:47:12.934Z,99.90
2023-05-22T03:49:45.821Z,99.90
2023-05-22T03:52:18.873Z,99.90
2023-05-22T03:54:51.631Z,99.90
2023-05-22T03:57:24.593Z,99.90
2023-05-22T03:59:57.638Z,99.90
2023-05-22T04:02:30.778Z,99.90
2023-05-22T04:05:03.942Z,99.90
2023-05-22T04:07:37.243Z,99.90
2023-05-22T04:10:10.607Z,99.90
2023-05-22T04:12:43.688Z,99.90
2023-05-22T04:15:16.467Z,99.90
2023-05-22T04:17:50.176Z,99.90
2023-05-22T04:20:22.851Z,99.90
2023-05-22T04:22:56.138Z,99.90
2023-05-22T04:25:30.168Z,99.90
2023-05-22T04:28:04.338Z,99.90
2023-05-22T04:30:40.615Z,99.90
2023-05-22T04:33:13.818Z,99.90
2023-05-22T04:35:46.515Z,99.90
2023-05-22T04:38:19.439Z,99.90
2023-05-22T04:40:53.108Z,99.90
2023-05-22T04:43:27.027Z,99.90
2023-05-22T04:46:00.703Z,99.90
2023-05-22T04:48:34.081Z,99.90
2023-05-22T04:51:06.803Z,99.90
2023-05-22T04:53:40.208Z,99.90
2023-05-22T04:56:14.699Z,99.90
2023-05-22T04:58:49.941Z,99.90
2023-05-22T05:01:23.104Z,99.90
2023-05-22T05:03:56.193Z,99.90
2023-05-22T05:06:29.086Z,99.90
2023-05-22T05:09:02.131Z,99.90
2023-05-22T05:11:35.285Z,99.90
2023-05-22T05:14:08.319Z,99.90
2023-05-22T05:16:41.337Z,99.90
2023-05-22T05:19:15.575Z,99.90
2023-05-22T05:21:49.620Z,99.90
2023-05-22T05:24:22.751Z,99.90
2023-05-22T05:26:55.563Z,99.90
2023-05-22T05:29:28.569Z,99.90
2023-05-22T05:32:01.353Z,99.90
2023-05-22T05:34:34.554Z,99.90
2023-05-22T05:37:07.125Z,99.90
2023-05-22T05:39:40.120Z,99.90
2023-05-22T05:42:12.840Z,99.90
2023-05-22T05:44:46.401Z,99.90
2023-05-22T05:47:19.083Z,99.10
2023-05-22T05:49:52.670Z,98.00
2023-05-22T05:52:32.788Z,96.90
2023-05-22T05:55:06.341Z,96.70
2023-05-22T05:57:39.115Z,96.30
2023-05-22T06:00:12.557Z,96.50
2023-05-22T06:02:47.522Z,96.80
2023-05-22T06:05:23.216Z,95.90
2023-05-22T06:07:58.342Z,95.60
2023-05-22T06:10:31.972Z,94.90
2023-05-22T06:13:04.674Z,94.00
2023-05-22T06:15:37.564Z,94.10
2023-05-22T06:18:30.648Z,94.10
2023-05-22T06:21:03.945Z,94.00
2023-05-22T06:23:37.110Z,93.70
2023-05-22T06:26:14.343Z,93.50
2023-05-22T06:28:47.169Z,92.60
2023-05-22T06:31:20.362Z,92.50
2023-05-22T06:33:55.647Z,92.40
2023-05-22T06:36:28.932Z,92.90
2023-05-22T06:39:02.727Z,92.30
2023-05-22T06:41:35.909Z,91.40
2023-05-22T06:44:08.530Z,91.70
2023-05-22T06:46:41.676Z,91.30
2023-05-22T06:49:14.396Z,91.20
2023-05-22T06:51:47.388Z,90.80
2023-05-22T06:54:21.682Z,90.60
2023-05-22T06:56:56.196Z,90.90
2023-05-22T06:59:29.876Z,90.20
2023-05-22T07:02:03.292Z,87.80
2023-05-22T07:04:36.118Z,88.20
2023-05-22T07:07:10.266Z,87.60
2023-05-22T07:09:42.818Z,86.10
2023-05-22T07:12:16.354Z,84.90
2023-05-22T07:14:49.060Z,84.70
2023-05-22T07:17:22.378Z,84.10
2023-05-22T07:19:55.139Z,84.40
2023-05-22T07:22:28.122Z,86.00
2023-05-22T07:25:00.886Z,83.50
2023-05-22T07:27:34.148Z,82.60
2023-05-22T07:30:07.566Z,81.10
2023-05-22T07:32:41.245Z,80.10
2023-05-22T07:35:14.213Z,80.20
2023-05-22T07:37:47.332Z,78.30
2023-05-22T07:40:20.258Z,78.30
2023-05-22T07:42:53.584Z,75.40
2023-05-22T07:45:26.954Z,72.70
2023-05-22T07:48:02.091Z,73.70
2023-05-22T07:50:34.975Z,74.30
2023-05-22T07:53:08.234Z,75.00
2023-05-22T07:55:41.029Z,70.50
2023-05-22T07:58:14.687Z,70.20
2023-05-22T08:00:47.634Z,69.80
2023-05-22T08:03:23.259Z,71.50
2023-05-22T08:05:56.850Z,72.30
2023-05-22T08:08:31.290Z,68.50
2023-05-22T08:11:05.031Z,68.00
2023-05-22T08:13:38.884Z,67.00
2023-05-22T08:16:12.008Z,65.70
2023-05-22T08:18:45.114Z,68.20
2023-05-22T08:21:18.441Z,64.80
2023-05-22T08:23:51.358Z,66.70
2023-05-22T08:26:24.121Z,63.90
2023-05-22T08:28:57.037Z,64.30
2023-05-22T08:31:30.131Z,63.60
2023-05-22T08:34:04.963Z,65.70
2023-05-22T08:36:37.850Z,63.40
2023-05-22T08:39:12.257Z,63.00
2023-05-22T08:41:45.333Z,61.70
2023-05-22T08:44:19.881Z,63.10
2023-05-22T08:46:56.716Z,62.00
2023-05-22T08:49:30.996Z,60.90
2023-05-22T08:52:09.758Z,59.40
2023-05-22T08:54:45.433Z,60.00
2023-05-22T08:57:19.286Z,61.10
2023-05-22T08:59:52.784Z,60.40
2023-05-22T09:02:26.248Z,59.60
2023-05-22T09:05:02.156Z,59.20
2023-05-22T09:07:35.160Z,60.70
2023-05-22T09:10:08.569Z,60.50
2023-05-22T09:13:04.504Z,59.60
2023-05-22T09:15:38.461Z,59.30
2023-05-22T09:18:11.588Z,60.30
2023-05-22T09:20:44.606Z,60.10
2023-05-22T09:23:22.139Z,59.80
2023-05-22T09:26:01.570Z,57.30
2023-05-22T09:28:36.424Z,56.40
2023-05-22T09:31:09.688Z,55.20
2023-05-22T09:33:44.627Z,56.20
2023-05-22T09:36:17.606Z,58.50
2023-05-22T09:38:50.266Z,57.10
2023-05-22T09:41:23.370Z,59.20
2023-05-22T09:43:56.301Z,54.60
2023-05-22T09:46:29.422Z,55.70
2023-05-22T09:49:02.071Z,54.50
2023-05-22T09:51:39.279Z,51.10
2023-05-22T09:54:13.254Z,52.70
2023-05-22T09:56:50.526Z,52.90
2023-05-22T09:59:30.386Z,54.00
2023-05-22T10:02:04.255Z,55.70
2023-05-22T10:04:40.355Z,55.40
2023-05-22T10:07:14.470Z,55.20
2023-05-22T10:09:52.804Z,54.90
2023-05-22T10:12:28.253Z,55.30
2023-05-22T10:15:02.819Z,52.50
2023-05-22T10:17:36.983Z,53.00
2023-05-22T10:20:10.615Z,54.60
2023-05-22T10:22:44.063Z,53.60
2023-05-22T10:25:18.517Z,53.10
2023-05-22T10:27:56.138Z,54.20
2023-05-22T10:30:41.244Z,54.00
2023-05-22T10:33:27.886Z,53.90
2023-05-22T10:36:16.630Z,55.50
2023-05-22T10:39:10.913Z,53.80
2023-05-22T10:41:43.699Z,55.60
2023-05-22T10:44:18.343Z,54.70
2023-05-22T10:46:51.332Z,54.70
2023-05-22T10:49:26.097Z,54.70
2023-05-22T10:51:58.898Z,53.90
2023-05-22T10:54:43.510Z,53.80
2023-05-22T10:57:17.520Z,52.90
2023-05-22T10:59:50.895Z,51.90
2023-05-22T11:02:31.629Z,53.70
2023-05-22T11:05:22.838Z,53.30
2023-05-22T11:08:32.430Z,51.40
2023-05-22T11:11:13.778Z,52.30
2023-05-22T11:13:52.373Z,51.80
2023-05-22T11:16:25.523Z,51.90
2023-05-22T11:19:22.022Z,53.60
2023-05-22T11:22:01.366Z,54.50
2023-05-22T11:24:35.091Z,53.40
2023-05-22T11:27:08.393Z,51.70
2023-05-22T11:29:44.598Z,52.40
2023-05-22T11:32:21.098Z,50.70
2023-05-22T11:34:54.166Z,51.10
2023-05-22T11:37:27.482Z,50.30
2023-05-22T11:40:06.211Z,49.80
2023-05-22T11:42:39.440Z,51.30
2023-05-22T11:45:12.453Z,51.40
2023-05-22T11:47:46.215Z,51.90
2023-05-22T11:50:43.844Z,51.60
2023-05-22T11:53:17.189Z,50.50
2023-05-22T11:55:50.021Z,50.10
2023-05-22T11:58:28.679Z,52.10
2023-05-22T12:01:02.941Z,52.30
2023-05-22T12:03:36.302Z,53.20
2023-05-22T12:06:10.090Z,51.80
2023-05-22T12:08:43.658Z,50.00
2023-05-22T12:11:17.118Z,50.90
2023-05-22T12:14:00.093Z,50.10
2023-05-22T12:16:36.888Z,50.50
2023-05-22T12:19:12.052Z,52.30
2023-05-22T12:21:45.479Z,52.10
2023-05-22T12:24:23.608Z,51.30
2023-05-22T12:26:58.919Z,51.30
2023-05-22T12:29:31.984Z,51.10
2023-05-22T12:32:08.694Z,50.60
2023-05-22T12:34:47.008Z,51.50
2023-05-22T12:37:28.614Z,51.30
2023-05-22T12:40:05.353Z,51.90
2023-05-22T12:42:38.365Z,49.50
2023-05-22T12:45:12.475Z,50.10
2023-05-22T12:47:45.334Z,49.40
2023-05-22T12:50:22.988Z,49.10
2023-05-22T12:53:02.634Z,48.90
2023-05-22T12:55:36.180Z,49.00
2023-05-22T12:58:13.628Z,50.10
2023-05-22T13:00:50.201Z,50.70
2023-05-22T13:03:23.061Z,50.60
2023-05-22T13:05:58.817Z,49.50
2023-05-22T13:08:31.531Z,50.20
2023-05-22T13:11:05.065Z,50.00
2023-05-22T13:13:37.958Z,49.40
2023-05-22T13:16:15.642Z,49.60
2023-05-22T13:18:48.390Z,49.20
2023-05-22T13:21:21.338Z,50.00
2023-05-22T13:23:54.060Z,49.50
2023-05-22T13:26:29.121Z,49.90
2023-05-22T13:29:01.846Z,48.50
2023-05-22T13:31:37.670Z,49.80
2023-05-22T13:34:10.487Z,47.20
2023-05-22T13:36:43.388Z,46.80
2023-05-22T13:39:16.308Z,46.70
2023-05-22T13:41:49.631Z,47.50
2023-05-22T13:44:22.531Z,46.40
2023-05-22T13:46:56.025Z,45.50
2023-05-22T13:49:29.211Z,46.30
2023-05-22T13:52:02.359Z,47.10
2023-05-22T13:54:35.253Z,43.80
2023-05-22T13:57:08.493Z,45.30
2023-05-22T13:59:41.264Z,45.80
2023-05-22T14:02:14.317Z,47.00
2023-05-22T14:04:48.631Z,48.90
2023-05-22T14:07:21.874Z,47.20
2023-05-22T14:09:54.505Z,47.00
2023-05-22T14:12:27.822Z,47.30
2023-05-22T14:15:00.561Z,47.50
2023-05-22T14:17:33.455Z,47.70
2023-05-22T14:20:07.254Z,45.20
2023-05-22T14:22:55.953Z,45.60
2023-05-22T14:25:30.031Z,44.70
2023-05-22T14:28:02.904Z,44.70
2023-05-22T14:30:35.674Z,46.70
2023-05-22T14:33:08.835Z,46.80
2023-05-22T14:35:41.867Z,46.50
2023-05-22T14:38:14.966Z,46.40
2023-05-22T14:40:47.603Z,46.00
2023-05-22T14:43:20.439Z,46.60
2023-05-22T14:45:53.213Z,46.50
2023-05-22T14:48:26.647Z,46.90
2023-05-22T14:50:59.556Z,46.70
2023-05-22T14:53:32.377Z,46.80
2023-05-22T14:56:05.062Z,46.60
2023-05-22T14:58:38.152Z,46.40
2023-05-22T15:01:10.766Z,43.70
2023-05-22T15:03:43.753Z,41.90
2023-05-22T15:06:16.516Z,41.60
2023-05-22T15:08:49.318Z,39.40
2023-05-22T15:11:22.087Z,38.70
2023-05-22T15:13:54.875Z,38.40
2023-05-22T15:16:27.936Z,38.50
2023-05-22T15:19:00.863Z,37.40
2023-05-22T15:21:34.047Z,37.80
2023-05-22T15:24:07.625Z,36.80
2023-05-22T15:26:40.520Z,35.60
2023-05-22T15:29:13.353Z,35.80
2023-05-22T15:31:45.939Z,35.20
2023-05-22T15:34:19.144Z,36.00
2023-05-22T15:36:51.907Z,35.30
2023-05-22T15:39:24.697Z,36.40
2023-05-22T15:42:05.841Z,36.80
2023-05-22T15:44:39.409Z,38.10
2023-05-22T15:47:11.945Z,39.80
2023-05-22T15:49:44.774Z,40.90
2023-05-22T15:52:18.084Z,40.20
2023-05-22T15:54:50.948Z,41.40
2023-05-22T15:57:23.497Z,42.20
2023-05-22T15:59:56.451Z,42.40
2023-05-22T16:02:29.090Z,43.70
2023-05-22T16:05:02.248Z,43.70
2023-05-22T16:07:34.905Z,44.30
2023-05-22T16:10:08.583Z,44.80
2023-05-22T16:12:41.643Z,43.90
2023-05-22T16:15:14.443Z,42.50
2023-05-22T16:17:47.095Z,41.00
2023-05-22T16:20:21.907Z,40.70
2023-05-22T16:22:55.143Z,39.30
2023-05-22T16:25:28.184Z,38.50
2023-05-22T16:28:00.921Z,38.20
2023-05-22T16:30:37.990Z,37.30
2023-05-22T16:33:10.945Z,36.90
2023-05-22T16:35:52.101Z,37.30
2023-05-22T16:38:33.417Z,37.20
2023-05-22T16:41:07.510Z,37.10
2023-05-22T16:43:40.431Z,37.70
2023-05-22T16:46:13.377Z,37.30
2023-05-22T16:48:46.046Z,37.10
2023-05-22T16:51:18.940Z,37.20
2023-05-22T16:53:51.765Z,36.90
2023-05-22T16:56:24.946Z,36.70
2023-05-22T16:58:57.673Z,36.80
2023-05-22T17:01:31.759Z,36.50
2023-05-22T17:04:04.556Z,36.50
2023-05-22T17:06:37.562Z,36.40
2023-05-22T17:09:10.514Z,36.50
2023-05-22T17:11:43.413Z,36.30
2023-05-22T17:14:16.214Z,37.40
2023-05-22T17:16:49.604Z,36.30
2023-05-22T17:19:23.093Z,36.40
2023-05-22T17:21:56.793Z,36.60
2023-05-22T17:24:30.192Z,36.50
2023-05-22T17:27:03.683Z,38.00
2023-05-22T17:29:36.327Z,37.40
2023-05-22T17:32:09.217Z,37.70
2023-05-22T17:34:41.789Z,38.20
2023-05-22T17:37:14.622Z,38.20
2023-05-22T17:39:47.178Z,39.10
2023-05-22T17:42:22.952Z,39.50
2023-05-22T17:44:55.527Z,40.10
2023-05-22T17:47:28.397Z,40.80
2023-05-22T17:50:01.187Z,41.40
2023-05-22T17:52:34.104Z,42.00
2023-05-22T17:55:06.832Z,42.50
2023-05-22T17:57:39.731Z,43.70
2023-05-22T18:00:13.154Z,44.20
2023-05-22T18:02:47.822Z,45.50
2023-05-22T18:05:20.912Z,46.40
2023-05-22T18:07:53.847Z,47.40
2023-05-22T18:10:26.459Z,48.50
2023-05-22T18:12:59.623Z,49.50
2023-05-22T18:15:33.109Z,50.90
2023-05-22T18:18:06.044Z,51.50
2023-05-22T18:20:38.985Z,52.00
2023-05-22T18:23:12.481Z,52.40
2023-05-22T18:25:45.383Z,52.80
2023-05-22T18:28:23.398Z,53.90
2023-05-22T18:30:56.388Z,54.50
2023-05-22T18:33:29.265Z,55.40
2023-05-22T18:36:01.879Z,55.40
2023-05-22T18:38:34.716Z,56.80
2023-05-22T18:41:07.579Z,56.70
2023-05-22T18:43:40.726Z,57.20
2023-05-22T18:46:16.461Z,57.90
2023-05-22T18:48:50.061Z,59.00
2023-05-22T18:51:22.944Z,59.80
2023-05-22T18:53:56.641Z,60.50
2023-05-22T18:56:29.465Z,60.90
2023-05-22T18:59:03.732Z,61.20
2023-05-22T19:01:36.328Z,61.80
2023-05-22T19:04:09.695Z,62.10
2023-05-22T19:06:42.380Z,62.90
2023-05-22T19:09:15.244Z,63.20
2023-05-22T19:11:47.900Z,63.30
2023-05-22T19:14:20.812Z,64.00
2023-05-22T19:16:55.915Z,64.50
2023-05-22T19:19:28.993Z,65.10
2023-05-22T19:22:01.690Z,66.20
2023-05-22T19:24:34.630Z,66.70
2023-05-22T19:27:07.152Z,66.80
2023-05-22T19:29:39.965Z,66.80
2023-05-22T19:32:14.054Z,67.50
2023-05-22T19:34:47.564Z,67.90
2023-05-22T19:37:20.164Z,67.80
2023-05-22T19:39:54.353Z,67.80
2023-05-22T19:42:26.919Z,68.50
2023-05-22T19:44:59.911Z,68.90
2023-05-22T19:47:32.620Z,68.80
2023-05-22T19:50:08.749Z,69.10
2023-05-22T19:52:41.744Z,69.90
2023-05-22T19:55:18.092Z,70.90
2023-05-22T19:57:51.034Z,72.00
2023-05-22T20:00:28.430Z,72.00
2023-05-22T20:03:01.460Z,71.90
2023-05-22T20:05:34.587Z,72.40
2023-05-22T20:08:09.692Z,72.60
2023-05-22T20:10:42.633Z,73.30
2023-05-22T20:13:15.488Z,72.70
2023-05-22T20:15:50.471Z,72.90
2023-05-22T20:18:23.808Z,72.90
2023-05-22T20:20:57.154Z,72.80
2023-05-22T20:23:32.496Z,73.30
2023-05-22T20:26:05.634Z,74.30
2023-05-22T20:28:38.349Z,75.00
2023-05-22T20:31:11.182Z,76.00
2023-05-22T20:33:43.936Z,77.20
2023-05-22T20:36:18.900Z,77.90
2023-05-22T20:38:51.555Z,77.30
2023-05-22T20:41:24.987Z,77.00
2023-05-22T20:43:58.767Z,77.70
2023-05-22T20:46:33.279Z,77.40
2023-05-22T20:49:06.222Z,77.60
2023-05-22T20:51:39.459Z,77.80
2023-05-22T20:54:11.967Z,78.00
2023-05-22T20:56:44.964Z,78.20
2023-05-22T20:59:17.471Z,79.00
2023-05-22T21:01:50.319Z,80.00
2023-05-22T21:04:23.065Z,80.40
2023-05-22T21:06:55.931Z,82.90
2023-05-22T21:09:28.412Z,84.80
2023-05-22T21:12:01.495Z,86.00
2023-05-22T21:14:34.129Z,87.50
2023-05-22T21:17:07.312Z,86.20
2023-05-22T21:19:39.919Z,85.80
2023-05-22T21:22:12.781Z,85.60
2023-05-22T21:24:45.393Z,86.00
2023-05-22T21:27:18.229Z,86.80
2023-05-22T21:29:50.883Z,88.70
2023-05-22T21:32:23.676Z,88.90
2023-05-22T21:34:56.207Z,89.10
2023-05-22T21:37:29.013Z,89.90
2023-05-22T21:40:04.535Z,90.30
2023-05-22T21:42:46.587Z,90.60
2023-05-22T21:45:19.928Z,90.90
2023-05-22T21:47:53.070Z,91.80
2023-05-22T21:50:25.659Z,91.90
2023-05-22T21:52:58.524Z,92.00
2023-05-22T21:55:31.120Z,92.30
2023-05-22T21:58:04.001Z,92.70
2023-05-22T22:00:37.266Z,93.10
2023-05-22T22:03:10.176Z,93.60
2023-05-22T22:05:42.859Z,94.40
2023-05-22T22:08:15.721Z,95.10
2023-05-22T22:10:48.205Z,95.80
2023-05-22T22:13:21.004Z,96.90
2023-05-22T22:15:53.661Z,97.50
2023-05-22T22:18:26.495Z,97.80
2023-05-22T22:21:02.278Z,97.90
2023-05-22T22:23:35.528Z,98.10
2023-05-22T22:26:08.093Z,98.90
2023-05-22T22:28:41.067Z,99.20
2023-05-22T22:31:13.555Z,99.60
2023-05-22T22:33:46.627Z,99.50
2023-05-22T22:36:19.138Z,99.50
2023-05-22T22:38:51.973Z,99.80
2023-05-22T22:41:24.513Z,99.70
2023-05-22T22:43:57.326Z,99.90
2023-05-22T22:46:29.870Z,99.90
2023-05-22T22:49:02.671Z,99.90
2023-05-22T22:51:35.597Z,99.90
2023-05-22T22:54:08.404Z,99.90
2023-05-22T22:56:41.485Z,99.90
2023-05-22T22:59:14.348Z,99.90
2023-05-22T23:01:47.005Z,99.90
2023-05-22T23:04:19.967Z,99.90
2023-05-22T23:06:52.767Z,99.90
2023-05-22T23:09:25.887Z,99.90
2023-05-22T23:11:58.399Z,99.90
2023-05-22T23:14:31.184Z,99.90
2023-05-22T23:17:04.313Z,99.90
2023-05-22T23:19:37.131Z,99.90
2023-05-22T23:22:09.743Z,99.90
2023-05-22T23:24:42.524Z,99.90
2023-05-22T23:27:15.531Z,99.90
2023-05-22T23:29:48.418Z,99.90
2023-05-22T23:32:22.000Z,99.90
2023-05-22T23:34:54.815Z,99.90
2023-05-22T23:37:27.313Z,99.90
2023-05-22T23:40:00.261Z,99.90
2023-05-22T23:42:33.296Z,99.90
2023-05-22T23:45:06.589Z,99.90
2023-05-22T23:47:39.169Z,99.90
2023-05-22T23:50:12.008Z,99.90
2023-05-22T23:52:44.541Z,99.90
2023-05-22T23:55:17.397Z,99.90
2023-05-22T23:57:50.025Z,99.90
